sensor_id;sensor_type;location;lat;lon;timestamp;pressure;altitude;pressure_sealevel;temperature;humidity
63665;BME280;49820;33.966;73.390;2023-06-22T02:08:02;78622.13;;;23.30;100.00
63665;BME280;49820;33.966;73.390;2023-06-22T02:10:36;78576.91;;;23.03;100.00
63665;BME280;49820;33.966;73.390;2023-06-22T02:13:07;78626.94;;;23.81;100.00
63665;BME280;49820;33.966;73.390;2023-06-22T02:15:37;78611.66;;;23.94;100.00
63665;BME280;49820;33.966;73.390;2023-06-22T02:18:07;78613.88;;;24.22;99.14
63665;BME280;49820;33.966;73.390;2023-06-22T02:20:37;78616.69;;;24.50;100.00
63665;BME280;49820;33.966;73.390;2023-06-22T02:23:07;78607.19;;;24.68;100.00
63665;BME280;49820;33.966;73.390;2023-06-22T02:54:49;78629.84;;;26.79;68.05
63665;BME280;49820;33.966;73.390;2023-06-22T02:57:18;78625.53;;;27.25;72.42
63665;BME280;49820;33.966;73.390;2023-06-22T02:59:47;78618.59;;;27.52;70.42
63665;BME280;49820;33.966;73.390;2023-06-22T03:02:16;78630.84;;;27.79;67.34
63665;BME280;49820;33.966;73.390;2023-06-22T03:04:46;78627.72;;;28.17;71.21
63665;BME280;49820;33.966;73.390;2023-06-22T03:07:17;78642.25;;;28.16;65.28
63665;BME280;49820;33.966;73.390;2023-06-22T03:09:49;78639.03;;;28.13;64.24
63665;BME280;49820;33.966;73.390;2023-06-22T03:12:18;78645.75;;;28.31;67.79
63665;BME280;49820;33.966;73.390;2023-06-22T03:14:53;78639.22;;;28.52;66.20
63665;BME280;49820;33.966;73.390;2023-06-22T03:17:22;78626.22;;;28.68;59.21
63665;BME280;49820;33.966;73.390;2023-06-22T03:19:51;78627.06;;;28.58;62.62
63665;BME280;49820;33.966;73.390;2023-06-22T03:22:20;78622.13;;;28.43;65.86
63665;BME280;49820;33.966;73.390;2023-06-22T03:24:49;78634.22;;;28.87;70.07
63665;BME280;49820;33.966;73.390;2023-06-22T03:27:19;78638.38;;;29.27;63.16
63665;BME280;49820;33.966;73.390;2023-06-22T03:29:48;78636.41;;;29.34;71.77
63665;BME280;49820;33.966;73.390;2023-06-22T03:32:17;78632.66;;;29.62;70.43
63665;BME280;49820;33.966;73.390;2023-06-22T03:34:47;78615.31;;;29.63;65.19
63665;BME280;49820;33.966;73.390;2023-06-22T03:37:16;78621.00;;;29.13;63.14
63665;BME280;49820;33.966;73.390;2023-06-22T03:39:46;78630.97;;;29.49;59.60
63665;BME280;49820;33.966;73.390;2023-06-22T03:42:16;78638.69;;;29.79;63.18
63665;BME280;49820;33.966;73.390;2023-06-22T03:44:46;78628.78;;;29.82;59.75
63665;BME280;49820;33.966;73.390;2023-06-22T03:47:15;78633.00;;;30.05;58.17
63665;BME280;49820;33.966;73.390;2023-06-22T03:49:44;78631.16;;;29.86;60.26
63665;BME280;49820;33.966;73.390;2023-06-22T03:52:38;78637.31;;;29.87;59.47
63665;BME280;49820;33.966;73.390;2023-06-22T03:55:08;78641.44;;;30.03;57.95
63665;BME280;49820;33.966;73.390;2023-06-22T03:57:37;78635.53;;;29.68;57.56
63665;BME280;49820;33.966;73.390;2023-06-22T04:00:07;78609.78;;;29.48;62.43
63665;BME280;49820;33.966;73.390;2023-06-22T04:02:40;78644.22;;;30.33;59.47
63665;BME280;49820;33.966;73.390;2023-06-22T04:05:10;78618.50;;;30.28;59.80
63665;BME280;49820;33.966;73.390;2023-06-22T04:07:41;78601.78;;;30.15;66.46
63665;BME280;49820;33.966;73.390;2023-06-22T04:10:11;78640.28;;;31.15;69.50
63665;BME280;49820;33.966;73.390;2023-06-22T04:12:43;78630.66;;;30.62;59.58
63665;BME280;49820;33.966;73.390;2023-06-22T04:15:12;78630.38;;;30.88;59.45
63665;BME280;49820;33.966;73.390;2023-06-22T04:17:41;78650.59;;;30.93;58.61
63665;BME280;49820;33.966;73.390;2023-06-22T04:20:11;78644.28;;;31.62;60.30
63665;BME280;49820;33.966;73.390;2023-06-22T04:22:40;78638.06;;;31.76;56.20
63665;BME280;49820;33.966;73.390;2023-06-22T04:25:09;78632.59;;;31.46;54.34
63665;BME280;49820;33.966;73.390;2023-06-22T04:27:38;78643.19;;;31.80;61.26
63665;BME280;49820;33.966;73.390;2023-06-22T04:30:09;78646.56;;;31.59;53.61
63665;BME280;49820;33.966;73.390;2023-06-22T04:32:39;78636.75;;;31.38;58.13
63665;BME280;49820;33.966;73.390;2023-06-22T04:35:10;78648.28;;;31.26;50.60
63665;BME280;49820;33.966;73.390;2023-06-22T04:37:40;78641.47;;;31.25;53.93
63665;BME280;49820;33.966;73.390;2023-06-22T04:40:09;78634.34;;;31.13;58.03
63665;BME280;49820;33.966;73.390;2023-06-22T04:42:39;78645.50;;;30.19;56.29
63665;BME280;49820;33.966;73.390;2023-06-22T04:45:08;78659.25;;;30.89;66.30
63665;BME280;49820;33.966;73.390;2023-06-22T04:47:40;78644.97;;;31.32;52.67
63665;BME280;49820;33.966;73.390;2023-06-22T04:50:09;78664.56;;;31.73;56.32
63665;BME280;49820;33.966;73.390;2023-06-22T04:52:38;78655.72;;;31.79;54.69
63665;BME280;49820;33.966;73.390;2023-06-22T04:55:10;78677.28;;;32.29;52.60
63665;BME280;49820;33.966;73.390;2023-06-22T04:57:42;78632.94;;;31.20;55.44
63665;BME280;49820;33.966;73.390;2023-06-22T05:00:19;78621.41;;;31.70;59.11
63665;BME280;49820;33.966;73.390;2023-06-22T05:02:48;78664.59;;;32.39;52.70
63665;BME280;49820;33.966;73.390;2023-06-22T05:05:18;78672.91;;;32.17;50.46
63665;BME280;49820;33.966;73.390;2023-06-22T05:07:49;78665.31;;;30.67;53.67
63665;BME280;49820;33.966;73.390;2023-06-22T05:10:21;78638.38;;;30.83;53.37
63665;BME280;49820;33.966;73.390;2023-06-22T05:12:50;78634.41;;;31.56;59.76
63665;BME280;49820;33.966;73.390;2023-06-22T05:15:25;78657.53;;;31.90;51.96
63665;BME280;49820;33.966;73.390;2023-06-22T05:17:58;78663.22;;;31.88;61.85
63665;BME280;49820;33.966;73.390;2023-06-22T05:20:36;78673.47;;;30.46;56.50
63665;BME280;49820;33.966;73.390;2023-06-22T05:23:05;78672.75;;;31.30;70.88
63665;BME280;49820;33.966;73.390;2023-06-22T05:25:34;78673.41;;;30.69;55.74
63665;BME280;49820;33.966;73.390;2023-06-22T05:28:04;78669.28;;;31.07;64.53
63665;BME280;49820;33.966;73.390;2023-06-22T05:30:39;78664.09;;;32.30;55.01
63665;BME280;49820;33.966;73.390;2023-06-22T05:33:08;78669.41;;;31.88;57.13
63665;BME280;49820;33.966;73.390;2023-06-22T05:35:37;78660.75;;;32.36;53.12
63665;BME280;49820;33.966;73.390;2023-06-22T05:38:06;78630.72;;;30.99;58.30
63665;BME280;49820;33.966;73.390;2023-06-22T05:40:35;78658.03;;;31.77;56.15
63665;BME280;49820;33.966;73.390;2023-06-22T05:43:04;78655.44;;;32.34;53.95
63665;BME280;49820;33.966;73.390;2023-06-22T05:45:33;78625.72;;;30.56;52.71
63665;BME280;49820;33.966;73.390;2023-06-22T05:48:02;78686.94;;;30.26;58.98
63665;BME280;49820;33.966;73.390;2023-06-22T05:50:31;78677.84;;;29.65;64.12
63665;BME280;49820;33.966;73.390;2023-06-22T05:53:01;78677.63;;;30.53;58.17
63665;BME280;49820;33.966;73.390;2023-06-22T05:55:29;78696.13;;;31.16;56.81
63665;BME280;49820;33.966;73.390;2023-06-22T05:58:01;78664.28;;;32.06;59.80
63665;BME280;49820;33.966;73.390;2023-06-22T06:00:31;78689.97;;;31.82;56.06
63665;BME280;49820;33.966;73.390;2023-06-22T06:03:01;78683.41;;;32.23;58.07
63665;BME280;49820;33.966;73.390;2023-06-22T06:05:33;78665.28;;;32.17;58.55
63665;BME280;49820;33.966;73.390;2023-06-22T06:08:05;78690.66;;;32.27;56.63
63665;BME280;49820;33.966;73.390;2023-06-22T06:10:35;78689.41;;;30.91;57.76
63665;BME280;49820;33.966;73.390;2023-06-22T06:13:04;78682.81;;;31.18;56.97
63665;BME280;49820;33.966;73.390;2023-06-22T06:15:34;78683.72;;;32.34;67.11
63665;BME280;49820;33.966;73.390;2023-06-22T06:18:03;78680.91;;;31.54;58.70
63665;BME280;49820;33.966;73.390;2023-06-22T06:20:33;78684.03;;;31.87;60.33
63665;BME280;49820;33.966;73.390;2023-06-22T06:23:02;78686.09;;;30.51;66.79
63665;BME280;49820;33.966;73.390;2023-06-22T06:25:31;78680.69;;;31.03;59.93
63665;BME280;49820;33.966;73.390;2023-06-22T06:28:00;78672.03;;;31.97;57.07
63665;BME280;49820;33.966;73.390;2023-06-22T06:30:30;78688.09;;;32.96;62.56
63665;BME280;49820;33.966;73.390;2023-06-22T06:33:02;78675.13;;;32.73;63.17
63665;BME280;49820;33.966;73.390;2023-06-22T06:35:34;78683.03;;;32.77;65.17
63665;BME280;49820;33.966;73.390;2023-06-22T06:38:04;78667.88;;;33.33;62.30
63665;BME280;49820;33.966;73.390;2023-06-22T06:40:33;78691.28;;;32.71;53.25
63665;BME280;49820;33.966;73.390;2023-06-22T06:43:02;78668.50;;;32.70;52.86
63665;BME280;49820;33.966;73.390;2023-06-22T06:45:31;78673.09;;;32.87;55.14
63665;BME280;49820;33.966;73.390;2023-06-22T06:48:03;78679.94;;;32.88;53.13
63665;BME280;49820;33.966;73.390;2023-06-22T06:50:32;78674.09;;;32.77;51.99
63665;BME280;49820;33.966;73.390;2023-06-22T06:53:01;78686.53;;;33.48;56.32
63665;BME280;49820;33.966;73.390;2023-06-22T06:55:30;78671.59;;;32.81;58.17
63665;BME280;49820;33.966;73.390;2023-06-22T06:58:02;78697.59;;;33.48;58.86
63665;BME280;49820;33.966;73.390;2023-06-22T07:00:32;78704.78;;;32.81;56.25
63665;BME280;49820;33.966;73.390;2023-06-22T07:03:19;78689.28;;;31.97;56.01
63665;BME280;49820;33.966;73.390;2023-06-22T07:05:48;78688.41;;;30.64;67.07
63665;BME280;49820;33.966;73.390;2023-06-22T07:08:17;78665.22;;;30.76;61.41
63665;BME280;49820;33.966;73.390;2023-06-22T07:10:46;78690.97;;;31.27;71.33
63665;BME280;49820;33.966;73.390;2023-06-22T07:13:16;78693.09;;;32.37;53.11
63665;BME280;49820;33.966;73.390;2023-06-22T07:15:56;78698.28;;;32.91;56.20
63665;BME280;49820;33.966;73.390;2023-06-22T07:18:28;78693.72;;;32.59;61.25
63665;BME280;49820;33.966;73.390;2023-06-22T07:20:57;78676.50;;;31.94;56.17
63665;BME280;49820;33.966;73.390;2023-06-22T07:23:25;78689.03;;;31.40;62.03
63665;BME280;49820;33.966;73.390;2023-06-22T07:25:54;78671.97;;;32.12;52.41
63665;BME280;49820;33.966;73.390;2023-06-22T07:28:23;78692.38;;;32.74;56.93
63665;BME280;49820;33.966;73.390;2023-06-22T07:30:52;78686.47;;;33.41;53.16
63665;BME280;49820;33.966;73.390;2023-06-22T07:33:21;78678.78;;;32.78;55.10
63665;BME280;49820;33.966;73.390;2023-06-22T07:35:50;78683.75;;;33.19;55.35
63665;BME280;49820;33.966;73.390;2023-06-22T07:38:20;78680.00;;;33.64;54.77
63665;BME280;49820;33.966;73.390;2023-06-22T07:40:49;78689.88;;;33.77;52.20
63665;BME280;49820;33.966;73.390;2023-06-22T07:43:19;78690.34;;;33.16;48.64
63665;BME280;49820;33.966;73.390;2023-06-22T07:45:51;78694.25;;;33.60;56.26
63665;BME280;49820;33.966;73.390;2023-06-22T07:48:24;78655.59;;;32.10;55.22
63665;BME280;49820;33.966;73.390;2023-06-22T07:50:53;78687.06;;;33.35;59.02
63665;BME280;49820;33.966;73.390;2023-06-22T07:53:22;78682.09;;;32.44;50.78
63665;BME280;49820;33.966;73.390;2023-06-22T07:55:51;78663.00;;;33.33;59.68
63665;BME280;49820;33.966;73.390;2023-06-22T07:58:20;78661.53;;;31.32;52.77
63665;BME280;49820;33.966;73.390;2023-06-22T08:00:49;78678.41;;;31.95;60.95
63665;BME280;49820;33.966;73.390;2023-06-22T08:03:18;78668.19;;;31.94;55.03
63665;BME280;49820;33.966;73.390;2023-06-22T08:05:47;78670.41;;;31.63;63.60
63665;BME280;49820;33.966;73.390;2023-06-22T08:08:17;78675.81;;;30.89;58.54
63665;BME280;49820;33.966;73.390;2023-06-22T08:10:46;78657.88;;;30.51;61.08
63665;BME280;49820;33.966;73.390;2023-06-22T08:13:14;78659.09;;;32.17;57.50
63665;BME280;49820;33.966;73.390;2023-06-22T08:15:43;78652.88;;;31.95;60.42
63665;BME280;49820;33.966;73.390;2023-06-22T08:18:16;78627.00;;;32.42;53.13
63665;BME280;49820;33.966;73.390;2023-06-22T08:20:45;78651.06;;;33.35;69.07
63665;BME280;49820;33.966;73.390;2023-06-22T08:23:15;78657.47;;;32.77;51.85
63665;BME280;49820;33.966;73.390;2023-06-22T08:25:45;78635.09;;;33.36;60.54
63665;BME280;49820;33.966;73.390;2023-06-22T08:28:14;78641.19;;;32.88;52.08
63665;BME280;49820;33.966;73.390;2023-06-22T08:30:43;78657.56;;;32.83;56.12
63665;BME280;49820;33.966;73.390;2023-06-22T08:33:12;78637.38;;;32.91;54.33
63665;BME280;49820;33.966;73.390;2023-06-22T08:35:58;78633.16;;;33.34;56.25
63665;BME280;49820;33.966;73.390;2023-06-22T08:38:28;78631.75;;;33.13;51.13
63665;BME280;49820;33.966;73.390;2023-06-22T08:40:57;78625.34;;;33.08;52.61
63665;BME280;49820;33.966;73.390;2023-06-22T08:43:26;78619.34;;;32.71;50.74
63665;BME280;49820;33.966;73.390;2023-06-22T08:45:55;78617.00;;;31.36;55.16
63665;BME280;49820;33.966;73.390;2023-06-22T08:48:24;78643.69;;;31.68;61.54
63665;BME280;49820;33.966;73.390;2023-06-22T08:50:53;78640.16;;;30.71;59.91
63665;BME280;49820;33.966;73.390;2023-06-22T08:53:22;78619.31;;;31.55;56.70
63665;BME280;49820;33.966;73.390;2023-06-22T08:55:51;78645.78;;;32.26;55.06
63665;BME280;49820;33.966;73.390;2023-06-22T08:58:21;78638.75;;;32.49;64.97
63665;BME280;49820;33.966;73.390;2023-06-22T09:00:51;78629.94;;;32.68;62.57
63665;BME280;49820;33.966;73.390;2023-06-22T09:03:20;78615.97;;;33.05;56.11
63665;BME280;49820;33.966;73.390;2023-06-22T09:05:49;78613.59;;;31.57;55.94
63665;BME280;49820;33.966;73.390;2023-06-22T09:08:19;78616.88;;;31.44;55.80
63665;BME280;49820;33.966;73.390;2023-06-22T09:10:48;78613.75;;;31.33;55.74
63665;BME280;49820;33.966;73.390;2023-06-22T09:13:17;78615.66;;;31.50;58.50
63665;BME280;49820;33.966;73.390;2023-06-22T09:15:46;78630.00;;;30.92;59.87
63665;BME280;49820;33.966;73.390;2023-06-22T09:18:16;78639.78;;;30.06;66.08
63665;BME280;49820;33.966;73.390;2023-06-22T09:20:45;78616.25;;;29.68;69.16
63665;BME280;49820;33.966;73.390;2023-06-22T09:23:14;78619.47;;;30.10;70.62
63665;BME280;49820;33.966;73.390;2023-06-22T09:25:43;78600.44;;;29.60;71.55
63665;BME280;49820;33.966;73.390;2023-06-22T09:28:13;78605.56;;;29.25;73.29
63665;BME280;49820;33.966;73.390;2023-06-22T09:30:45;78616.56;;;29.73;68.37
63665;BME280;49820;33.966;73.390;2023-06-22T09:33:15;78612.34;;;30.13;68.73
63665;BME280;49820;33.966;73.390;2023-06-22T09:35:47;78607.16;;;30.63;71.24
63665;BME280;49820;33.966;73.390;2023-06-22T09:38:17;78615.38;;;30.32;63.74
63665;BME280;49820;33.966;73.390;2023-06-22T09:40:49;78602.81;;;29.88;67.07
63665;BME280;49820;33.966;73.390;2023-06-22T09:43:18;78615.59;;;29.20;68.27
63665;BME280;49820;33.966;73.390;2023-06-22T09:45:47;78615.38;;;29.31;74.94
63665;BME280;49820;33.966;73.390;2023-06-22T09:48:16;78603.19;;;30.53;71.16
63665;BME280;49820;33.966;73.390;2023-06-22T09:50:46;78585.41;;;29.59;70.38
63665;BME280;49820;33.966;73.390;2023-06-22T09:53:15;78599.78;;;29.83;69.22
63665;BME280;49820;33.966;73.390;2023-06-22T09:55:44;78612.88;;;29.44;84.15
63665;BME280;49820;33.966;73.390;2023-06-22T09:58:12;78615.41;;;28.98;77.05
63665;BME280;49820;33.966;73.390;2023-06-22T10:00:41;78619.28;;;29.01;85.10
63665;BME280;49820;33.966;73.390;2023-06-22T10:03:11;78608.03;;;28.47;86.65
63665;BME280;49820;33.966;73.390;2023-06-22T10:05:47;78615.91;;;28.10;80.25
63665;BME280;49820;33.966;73.390;2023-06-22T10:08:17;78612.91;;;27.88;89.37
63665;BME280;49820;33.966;73.390;2023-06-22T10:10:46;78627.47;;;27.69;90.54
63665;BME280;49820;33.966;73.390;2023-06-22T10:13:17;78622.94;;;27.66;86.47
63665;BME280;49820;33.966;73.390;2023-06-22T10:15:47;78605.84;;;28.32;93.82
63665;BME280;49820;33.966;73.390;2023-06-22T10:18:19;78602.63;;;28.62;83.08
63665;BME280;49820;33.966;73.390;2023-06-22T10:20:50;78591.09;;;28.44;82.32
63665;BME280;49820;33.966;73.390;2023-06-22T10:23:20;78602.72;;;28.45;79.35
63665;BME280;49820;33.966;73.390;2023-06-22T10:25:51;78619.78;;;28.13;77.83
63665;BME280;49820;33.966;73.390;2023-06-22T10:28:23;78616.00;;;27.76;80.86
63665;BME280;49820;33.966;73.390;2023-06-22T10:30:59;78603.53;;;27.85;83.61
63665;BME280;49820;33.966;73.390;2023-06-22T10:33:28;78579.56;;;29.15;74.12
63665;BME280;49820;33.966;73.390;2023-06-22T10:35:57;78595.97;;;29.72;68.86
63665;BME280;49820;33.966;73.390;2023-06-22T10:38:26;78609.97;;;29.13;75.62
63665;BME280;49820;33.966;73.390;2023-06-22T10:40:55;78584.69;;;28.14;78.14
63665;BME280;49820;33.966;73.390;2023-06-22T10:43:27;78555.66;;;28.49;72.22
63665;BME280;49820;33.966;73.390;2023-06-22T10:45:59;78598.34;;;29.60;74.23
63665;BME280;49820;33.966;73.390;2023-06-22T10:48:29;78582.66;;;30.13;70.60
63665;BME280;49820;33.966;73.390;2023-06-22T10:51:01;78581.69;;;30.32;67.87
63665;BME280;49820;33.966;73.390;2023-06-22T10:53:30;78539.09;;;29.92;67.86
63665;BME280;49820;33.966;73.390;2023-06-22T10:55:59;78578.72;;;30.49;62.88
63665;BME280;49820;33.966;73.390;2023-06-22T10:58:28;78569.75;;;29.73;71.15
63665;BME280;49820;33.966;73.390;2023-06-22T11:00:57;78557.78;;;30.07;67.82
63665;BME280;49820;33.966;73.390;2023-06-22T11:03:27;78567.19;;;29.47;68.80
63665;BME280;49820;33.966;73.390;2023-06-22T11:05:56;78580.03;;;28.94;74.74
63665;BME280;49820;33.966;73.390;2023-06-22T11:08:27;78557.28;;;28.05;74.86
63665;BME280;49820;33.966;73.390;2023-06-22T11:10:57;78583.91;;;28.15;76.75
63665;BME280;49820;33.966;73.390;2023-06-22T11:13:25;78548.97;;;28.22;74.74
63665;BME280;49820;33.966;73.390;2023-06-22T11:15:54;78540.66;;;28.72;76.84
63665;BME280;49820;33.966;73.390;2023-06-22T11:18:23;78569.78;;;28.36;77.92
63665;BME280;49820;33.966;73.390;2023-06-22T11:20:52;78568.44;;;28.85;71.36
63665;BME280;49820;33.966;73.390;2023-06-22T11:23:22;78548.16;;;29.12;71.41
63665;BME280;49820;33.966;73.390;2023-06-22T11:25:51;78489.16;;;28.31;74.75
63665;BME280;49820;33.966;73.390;2023-06-22T11:28:22;78560.72;;;29.27;73.74
63665;BME280;49820;33.966;73.390;2023-06-22T11:30:53;78547.25;;;28.83;74.67
63665;BME280;49820;33.966;73.390;2023-06-22T11:33:24;78565.75;;;27.86;80.05
63665;BME280;49820;33.966;73.390;2023-06-22T11:35:53;78549.69;;;27.47;96.13
63665;BME280;49820;33.966;73.390;2023-06-22T11:38:24;78568.91;;;27.39;86.23
63665;BME280;49820;33.966;73.390;2023-06-22T11:40:54;78559.56;;;26.92;95.30
63665;BME280;49820;33.966;73.390;2023-06-22T11:43:23;78515.88;;;26.99;88.25
63665;BME280;49820;33.966;73.390;2023-06-22T11:45:52;78564.81;;;27.72;89.21
63665;BME280;49820;33.966;73.390;2023-06-22T11:48:21;78552.97;;;27.91;80.59
63665;BME280;49820;33.966;73.390;2023-06-22T11:50:50;78547.78;;;27.20;86.04
63665;BME280;49820;33.966;73.390;2023-06-22T11:53:23;78547.94;;;27.18;91.55
63665;BME280;49820;33.966;73.390;2023-06-22T11:55:54;78545.00;;;26.85;94.67
63665;BME280;49820;33.966;73.390;2023-06-22T11:58:29;78528.72;;;26.49;97.85
63665;BME280;49820;33.966;73.390;2023-06-22T12:00:58;78543.53;;;26.43;100.00
63665;BME280;49820;33.966;73.390;2023-06-22T12:03:27;78535.72;;;26.91;99.78
63665;BME280;49820;33.966;73.390;2023-06-22T12:05:56;78539.56;;;27.11;97.64
63665;BME280;49820;33.966;73.390;2023-06-22T12:08:25;78526.63;;;26.32;100.00
63665;BME280;49820;33.966;73.390;2023-06-22T12:10:54;78512.00;;;25.91;100.00
63665;BME280;49820;33.966;73.390;2023-06-22T12:13:23;78547.03;;;26.25;100.00
63665;BME280;49820;33.966;73.390;2023-06-22T12:15:52;78511.16;;;26.37;100.00
63665;BME280;49820;33.966;73.390;2023-06-22T12:18:21;78524.22;;;26.71;100.00
63665;BME280;49820;33.966;73.390;2023-06-22T12:20:50;78518.25;;;26.60;96.12
63665;BME280;49820;33.966;73.390;2023-06-22T12:23:20;78545.00;;;26.85;99.95
63665;BME280;49820;33.966;73.390;2023-06-22T12:25:50;78548.28;;;26.96;100.00
63665;BME280;49820;33.966;73.390;2023-06-22T12:28:19;78536.47;;;26.64;100.00
63665;BME280;49820;33.966;73.390;2023-06-22T12:30:48;78523.72;;;26.26;100.00
63665;BME280;49820;33.966;73.390;2023-06-22T12:33:16;78528.00;;;26.14;100.00
63665;BME280;49820;33.966;73.390;2023-06-22T12:35:46;78554.16;;;26.30;100.00
63665;BME280;49820;33.966;73.390;2023-06-22T12:38:17;78554.50;;;25.90;100.00
63665;BME280;49820;33.966;73.390;2023-06-22T12:40:46;78561.88;;;25.74;100.00
63665;BME280;49820;33.966;73.390;2023-06-22T12:43:15;78534.84;;;25.42;100.00
63665;BME280;49820;33.966;73.390;2023-06-22T12:45:44;78546.13;;;25.46;100.00
63665;BME280;49820;33.966;73.390;2023-06-22T12:48:13;78518.97;;;25.17;100.00
63665;BME280;49820;33.966;73.390;2023-06-22T12:50:43;78523.78;;;25.16;100.00
63665;BME280;49820;33.966;73.390;2023-06-22T12:53:12;78522.25;;;25.00;100.00
63665;BME280;49820;33.966;73.390;2023-06-22T12:55:41;78506.13;;;24.68;100.00
63665;BME280;49820;33.966;73.390;2023-06-22T12:58:10;78530.72;;;24.68;100.00
63665;BME280;49820;33.966;73.390;2023-06-22T13:00:39;78536.56;;;24.81;100.00
63665;BME280;49820;33.966;73.390;2023-06-22T13:03:08;78539.81;;;24.84;100.00
63665;BME280;49820;33.966;73.390;2023-06-22T13:05:38;78538.47;;;24.74;100.00
63665;BME280;49820;33.966;73.390;2023-06-22T13:08:07;78531.31;;;24.41;100.00
63665;BME280;49820;33.966;73.390;2023-06-22T13:10:39;78533.34;;;24.31;100.00
63665;BME280;49820;33.966;73.390;2023-06-22T13:13:08;78503.16;;;23.95;100.00
63665;BME280;49820;33.966;73.390;2023-06-22T13:15:37;78553.53;;;24.26;100.00
63665;BME280;49820;33.966;73.390;2023-06-22T13:18:06;78525.50;;;23.98;100.00
63665;BME280;49820;33.966;73.390;2023-06-22T13:20:35;78551.75;;;24.22;100.00
63665;BME280;49820;33.966;73.390;2023-06-22T13:23:04;78534.03;;;24.02;100.00
63665;BME280;49820;33.966;73.390;2023-06-22T13:25:34;78551.06;;;24.03;100.00
63665;BME280;49820;33.966;73.390;2023-06-22T13:28:03;78548.94;;;23.84;100.00
63665;BME280;49820;33.966;73.390;2023-06-22T13:30:36;78516.44;;;23.41;100.00
63665;BME280;49820;33.966;73.390;2023-06-22T13:33:05;78556.69;;;23.71;100.00
63665;BME280;49820;33.966;73.390;2023-06-22T13:35:35;78528.47;;;23.44;100.00
63665;BME280;49820;33.966;73.390;2023-06-22T13:38:04;78546.75;;;23.56;100.00
63665;BME280;49820;33.966;73.390;2023-06-22T13:40:33;78494.47;;;23.13;100.00
63665;BME280;49820;33.966;73.390;2023-06-22T13:43:02;78545.13;;;23.40;100.00
63665;BME280;49820;33.966;73.390;2023-06-22T13:45:31;78543.72;;;23.31;100.00
63665;BME280;49820;33.966;73.390;2023-06-22T13:48:00;78537.53;;;23.21;100.00
63665;BME280;49820;33.966;73.390;2023-06-22T13:50:29;78542.00;;;23.06;100.00
63665;BME280;49820;33.966;73.390;2023-06-22T13:52:59;78544.69;;;23.16;100.00
63665;BME280;49820;33.966;73.390;2023-06-22T13:55:28;78553.25;;;23.21;100.00
63665;BME280;49820;33.966;73.390;2023-06-22T13:57:58;78539.66;;;23.10;100.00
63665;BME280;49820;33.966;73.390;2023-06-22T14:00:26;78550.47;;;23.02;100.00
63665;BME280;49820;33.966;73.390;2023-06-22T14:02:57;78545.94;;;22.88;100.00
63665;BME280;49820;33.966;73.390;2023-06-22T14:05:26;78547.22;;;22.89;100.00
63665;BME280;49820;33.966;73.390;2023-06-22T14:07:55;78562.00;;;23.02;100.00
63665;BME280;49820;33.966;73.390;2023-06-22T14:10:24;78562.81;;;22.79;100.00
63665;BME280;49820;33.966;73.390;2023-06-22T14:12:54;78551.00;;;22.72;100.00
63665;BME280;49820;33.966;73.390;2023-06-22T14:15:23;78578.00;;;22.76;100.00
63665;BME280;49820;33.966;73.390;2023-06-22T14:17:52;78543.13;;;22.68;100.00
63665;BME280;49820;33.966;73.390;2023-06-22T14:20:21;78562.44;;;22.64;100.00
63665;BME280;49820;33.966;73.390;2023-06-22T14:22:50;78560.78;;;22.48;100.00
63665;BME280;49820;33.966;73.390;2023-06-22T14:25:22;78556.63;;;22.38;100.00
63665;BME280;49820;33.966;73.390;2023-06-22T14:27:51;78539.94;;;22.13;100.00
63665;BME280;49820;33.966;73.390;2023-06-22T14:30:20;78549.78;;;22.18;100.00
63665;BME280;49820;33.966;73.390;2023-06-22T14:32:48;78572.72;;;22.32;100.00
63665;BME280;49820;33.966;73.390;2023-06-22T14:35:22;78563.63;;;22.25;100.00
63665;BME280;49820;33.966;73.390;2023-06-22T14:37:52;78544.19;;;21.99;100.00
63665;BME280;49820;33.966;73.390;2023-06-22T14:40:21;78564.41;;;22.02;100.00
63665;BME280;49820;33.966;73.390;2023-06-22T14:42:53;78535.75;;;21.82;100.00
63665;BME280;49820;33.966;73.390;2023-06-22T14:45:24;78547.00;;;21.76;100.00
63665;BME280;49820;33.966;73.390;2023-06-22T14:47:53;78564.88;;;21.83;100.00
63665;BME280;49820;33.966;73.390;2023-06-22T14:50:22;78559.56;;;21.70;100.00
63665;BME280;49820;33.966;73.390;2023-06-22T14:52:51;78567.97;;;21.66;100.00
63665;BME280;49820;33.966;73.390;2023-06-22T14:55:21;78563.84;;;21.67;100.00
63665;BME280;49820;33.966;73.390;2023-06-22T14:57:50;78573.56;;;21.75;100.00
63665;BME280;49820;33.966;73.390;2023-06-22T15:00:19;78562.69;;;21.64;100.00
